sensor_id;sensor_type;location;lat;lon;timestamp;temperature;humidity
21950;DHT22;11139;51.284;7.226;2022-07-29T00:01:49;19.50;89.40
21950;DHT22;11139;51.284;7.226;2022-07-29T00:04:14;19.50;89.20
21950;DHT22;11139;51.284;7.226;2022-07-29T00:06:40;19.50;89.20
21950;DHT22;11139;51.284;7.226;2022-07-29T00:09:05;19.50;89.20
21950;DHT22;11139;51.284;7.226;2022-07-29T00:11:31;19.50;89.40
21950;DHT22;11139;51.284;7.226;2022-07-29T00:13:56;19.50;89.20
21950;DHT22;11139;51.284;7.226;2022-07-29T00:16:22;19.50;89.30
21950;DHT22;11139;51.284;7.226;2022-07-29T00:18:48;19.50;89.20
21950;DHT22;11139;51.284;7.226;2022-07-29T00:21:13;19.50;89.40
21950;DHT22;11139;51.284;7.226;2022-07-29T00:23:39;19.50;89.60
21950;DHT22;11139;51.284;7.226;2022-07-29T00:26:05;19.50;89.30
21950;DHT22;11139;51.284;7.226;2022-07-29T00:28:30;19.50;89.30
21950;DHT22;11139;51.284;7.226;2022-07-29T00:30:56;19.40;89.20
21950;DHT22;11139;51.284;7.226;2022-07-29T00:33:21;19.50;89.60
21950;DHT22;11139;51.284;7.226;2022-07-29T00:35:48;19.50;89.70
21950;DHT22;11139;51.284;7.226;2022-07-29T00:38:15;19.40;89.20
21950;DHT22;11139;51.284;7.226;2022-07-29T00:40:40;19.40;89.70
21950;DHT22;11139;51.284;7.226;2022-07-29T00:43:06;19.40;89.60
21950;DHT22;11139;51.284;7.226;2022-07-29T00:45:32;19.40;89.50
21950;DHT22;11139;51.284;7.226;2022-07-29T00:47:58;19.40;89.80
21950;DHT22;11139;51.284;7.226;2022-07-29T00:50:23;19.40;89.50
21950;DHT22;11139;51.284;7.226;2022-07-29T00:52:49;19.40;89.40
21950;DHT22;11139;51.284;7.226;2022-07-29T00:55:15;19.40;89.80
21950;DHT22;11139;51.284;7.226;2022-07-29T00:57:42;19.40;89.50
21950;DHT22;11139;51.284;7.226;2022-07-29T01:00:09;19.40;89.70
21950;DHT22;11139;51.284;7.226;2022-07-29T01:02:35;19.40;89.40
21950;DHT22;11139;51.284;7.226;2022-07-29T01:05:01;19.40;89.40
21950;DHT22;11139;51.284;7.226;2022-07-29T01:07:26;19.40;89.60
21950;DHT22;11139;51.284;7.226;2022-07-29T01:09:52;19.40;89.80
21950;DHT22;11139;51.284;7.226;2022-07-29T01:12:19;19.40;89.70
21950;DHT22;11139;51.284;7.226;2022-07-29T01:14:46;19.40;90.00
21950;DHT22;11139;51.284;7.226;2022-07-29T01:30:29;19.30;89.60
21950;DHT22;11139;51.284;7.226;2022-07-29T01:33:02;19.30;89.60
21950;DHT22;11139;51.284;7.226;2022-07-29T01:35:30;19.30;89.80
21950;DHT22;11139;51.284;7.226;2022-07-29T01:37:59;19.30;89.50
21950;DHT22;11139;51.284;7.226;2022-07-29T01:40:31;19.30;89.60
21950;DHT22;11139;51.284;7.226;2022-07-29T01:43:00;19.30;89.80
21950;DHT22;11139;51.284;7.226;2022-07-29T01:47:54;19.30;89.80
21950;DHT22;11139;51.284;7.226;2022-07-29T01:50:23;19.30;89.70
21950;DHT22;11139;51.284;7.226;2022-07-29T01:53:02;19.30;89.60
21950;DHT22;11139;51.284;7.226;2022-07-29T01:55:29;19.30;89.80
21950;DHT22;11139;51.284;7.226;2022-07-29T01:57:56;19.20;89.70
21950;DHT22;11139;51.284;7.226;2022-07-29T02:00:22;19.20;89.50
21950;DHT22;11139;51.284;7.226;2022-07-29T02:02:48;19.20;89.80
21950;DHT22;11139;51.284;7.226;2022-07-29T02:05:15;19.20;89.80
21950;DHT22;11139;51.284;7.226;2022-07-29T02:07:42;19.20;89.70
21950;DHT22;11139;51.284;7.226;2022-07-29T02:10:09;19.30;89.80
21950;DHT22;11139;51.284;7.226;2022-07-29T02:12:35;19.30;89.80
21950;DHT22;11139;51.284;7.226;2022-07-29T02:15:02;19.20;89.80
21950;DHT22;11139;51.284;7.226;2022-07-29T02:17:33;19.20;89.80
21950;DHT22;11139;51.284;7.226;2022-07-29T02:19:59;19.20;89.90
21950;DHT22;11139;51.284;7.226;2022-07-29T02:22:26;19.20;89.80
21950;DHT22;11139;51.284;7.226;2022-07-29T02:24:52;19.20;89.80
21950;DHT22;11139;51.284;7.226;2022-07-29T02:27:18;19.20;89.70
21950;DHT22;11139;51.284;7.226;2022-07-29T02:29:45;19.20;89.60
21950;DHT22;11139;51.284;7.226;2022-07-29T02:32:11;19.20;89.80
21950;DHT22;11139;51.284;7.226;2022-07-29T02:34:38;19.20;89.80
21950;DHT22;11139;51.284;7.226;2022-07-29T02:37:05;19.20;89.90
21950;DHT22;11139;51.284;7.226;2022-07-29T02:39:30;19.20;90.00
21950;DHT22;11139;51.284;7.226;2022-07-29T02:42:01;19.20;90.00
21950;DHT22;11139;51.284;7.226;2022-07-29T02:44:28;19.10;90.00
21950;DHT22;11139;51.284;7.226;2022-07-29T02:51:54;19.20;90.00
21950;DHT22;11139;51.284;7.226;2022-07-29T02:54:31;19.10;90.00
21950;DHT22;11139;51.284;7.226;2022-07-29T02:56:59;19.10;90.00
21950;DHT22;11139;51.284;7.226;2022-07-29T02:59:26;19.10;90.00
21950;DHT22;11139;51.284;7.226;2022-07-29T03:01:53;19.10;90.00
21950;DHT22;11139;51.284;7.226;2022-07-29T03:04:19;19.10;90.00
21950;DHT22;11139;51.284;7.226;2022-07-29T03:06:45;19.10;90.10
21950;DHT22;11139;51.284;7.226;2022-07-29T03:09:11;19.10;90.10
21950;DHT22;11139;51.284;7.226;2022-07-29T03:11:38;19.10;90.10
21950;DHT22;11139;51.284;7.226;2022-07-29T03:14:04;19.10;90.10
21950;DHT22;11139;51.284;7.226;2022-07-29T03:16:30;19.10;90.10
21950;DHT22;11139;51.284;7.226;2022-07-29T03:18:55;19.10;90.10
21950;DHT22;11139;51.284;7.226;2022-07-29T03:21:21;19.10;90.10
21950;DHT22;11139;51.284;7.226;2022-07-29T03:23:46;19.10;90.20
21950;DHT22;11139;51.284;7.226;2022-07-29T03:26:12;19.10;90.20
21950;DHT22;11139;51.284;7.226;2022-07-29T03:28:38;19.10;90.20
21950;DHT22;11139;51.284;7.226;2022-07-29T03:31:03;19.10;90.30
21950;DHT22;11139;51.284;7.226;2022-07-29T03:33:29;19.10;90.30
21950;DHT22;11139;51.284;7.226;2022-07-29T03:35:55;19.10;90.30
21950;DHT22;11139;51.284;7.226;2022-07-29T03:38:21;19.10;90.30
21950;DHT22;11139;51.284;7.226;2022-07-29T03:40:53;19.10;90.30
21950;DHT22;11139;51.284;7.226;2022-07-29T03:43:19;19.10;90.30
21950;DHT22;11139;51.284;7.226;2022-07-29T03:45:46;19.10;90.30
21950;DHT22;11139;51.284;7.226;2022-07-29T03:48:12;19.10;90.40
21950;DHT22;11139;51.284;7.226;2022-07-29T03:50:39;19.10;90.40
21950;DHT22;11139;51.284;7.226;2022-07-29T03:53:04;19.10;90.40
21950;DHT22;11139;51.284;7.226;2022-07-29T03:55:32;19.10;90.50
21950;DHT22;11139;51.284;7.226;2022-07-29T03:57:58;19.10;90.40
21950;DHT22;11139;51.284;7.226;2022-07-29T04:00:25;19.10;90.50
21950;DHT22;11139;51.284;7.226;2022-07-29T04:02:51;19.00;90.40
21950;DHT22;11139;51.284;7.226;2022-07-29T04:05:17;19.00;90.40
21950;DHT22;11139;51.284;7.226;2022-07-29T04:07:43;19.00;90.50
21950;DHT22;11139;51.284;7.226;2022-07-29T04:10:09;19.00;90.50
21950;DHT22;11139;51.284;7.226;2022-07-29T04:12:34;19.00;90.50
21950;DHT22;11139;51.284;7.226;2022-07-29T04:15:01;19.00;90.50
21950;DHT22;11139;51.284;7.226;2022-07-29T04:17:26;19.00;90.50
21950;DHT22;11139;51.284;7.226;2022-07-29T04:19:52;19.00;90.50
21950;DHT22;11139;51.284;7.226;2022-07-29T04:22:18;19.00;90.50
21950;DHT22;11139;51.284;7.226;2022-07-29T04:24:43;19.00;90.50
21950;DHT22;11139;51.284;7.226;2022-07-29T04:27:09;19.00;90.50
21950;DHT22;11139;51.284;7.226;2022-07-29T04:29:34;19.00;90.90
21950;DHT22;11139;51.284;7.226;2022-07-29T04:32:00;19.00;90.50
21950;DHT22;11139;51.284;7.226;2022-07-29T04:34:25;19.00;90.50
21950;DHT22;11139;51.284;7.226;2022-07-29T04:36:51;18.90;90.50
21950;DHT22;11139;51.284;7.226;2022-07-29T04:39:16;18.90;90.50
21950;DHT22;11139;51.284;7.226;2022-07-29T04:41:43;19.00;90.50
21950;DHT22;11139;51.284;7.226;2022-07-29T04:44:08;18.90;90.40
21950;DHT22;11139;51.284;7.226;2022-07-29T04:46:34;18.90;90.50
21950;DHT22;11139;51.284;7.226;2022-07-29T04:49:01;18.90;90.50
21950;DHT22;11139;51.284;7.226;2022-07-29T04:51:26;18.90;90.50
21950;DHT22;11139;51.284;7.226;2022-07-29T04:53:52;18.90;90.50
21950;DHT22;11139;51.284;7.226;2022-07-29T04:56:17;18.90;90.50
21950;DHT22;11139;51.284;7.226;2022-07-29T04:58:43;18.90;90.50
21950;DHT22;11139;51.284;7.226;2022-07-29T05:01:09;18.90;90.50
21950;DHT22;11139;51.284;7.226;2022-07-29T05:03:34;18.90;90.40
21950;DHT22;11139;51.284;7.226;2022-07-29T05:06:00;18.90;90.40
21950;DHT22;11139;51.284;7.226;2022-07-29T05:08:25;18.90;90.50
21950;DHT22;11139;51.284;7.226;2022-07-29T05:10:51;18.90;90.50
21950;DHT22;11139;51.284;7.226;2022-07-29T05:13:16;18.90;90.50
21950;DHT22;11139;51.284;7.226;2022-07-29T05:15:42;18.90;90.50
21950;DHT22;11139;51.284;7.226;2022-07-29T05:18:07;18.90;90.50
21950;DHT22;11139;51.284;7.226;2022-07-29T05:20:33;18.90;90.50
21950;DHT22;11139;51.284;7.226;2022-07-29T05:23:00;18.90;90.50
21950;DHT22;11139;51.284;7.226;2022-07-29T05:25:26;18.80;90.50
21950;DHT22;11139;51.284;7.226;2022-07-29T05:27:52;18.80;90.50
21950;DHT22;11139;51.284;7.226;2022-07-29T05:30:17;18.80;90.50
21950;DHT22;11139;51.284;7.226;2022-07-29T05:32:43;18.80;90.50
21950;DHT22;11139;51.284;7.226;2022-07-29T05:35:09;18.80;90.50
21950;DHT22;11139;51.284;7.226;2022-07-29T05:37:34;18.80;90.60
21950;DHT22;11139;51.284;7.226;2022-07-29T05:40:00;18.80;90.50
21950;DHT22;11139;51.284;7.226;2022-07-29T05:42:26;18.80;90.60
21950;DHT22;11139;51.284;7.226;2022-07-29T05:44:52;18.80;90.50
21950;DHT22;11139;51.284;7.226;2022-07-29T05:47:18;18.80;90.50
21950;DHT22;11139;51.284;7.226;2022-07-29T05:49:43;18.80;90.60
21950;DHT22;11139;51.284;7.226;2022-07-29T05:52:09;18.80;90.60
21950;DHT22;11139;51.284;7.226;2022-07-29T05:54:35;18.80;90.50
21950;DHT22;11139;51.284;7.226;2022-07-29T05:57:01;18.80;90.50
21950;DHT22;11139;51.284;7.226;2022-07-29T05:59:26;18.80;90.50
21950;DHT22;11139;51.284;7.226;2022-07-29T06:01:52;18.80;90.60
21950;DHT22;11139;51.284;7.226;2022-07-29T06:04:17;18.70;90.50
21950;DHT22;11139;51.284;7.226;2022-07-29T06:06:43;18.70;90.50
21950;DHT22;11139;51.284;7.226;2022-07-29T06:09:08;18.70;90.50
21950;DHT22;11139;51.284;7.226;2022-07-29T06:11:34;18.70;90.50
21950;DHT22;11139;51.284;7.226;2022-07-29T06:13:59;18.70;90.50
21950;DHT22;11139;51.284;7.226;2022-07-29T06:16:25;18.70;90.50
21950;DHT22;11139;51.284;7.226;2022-07-29T06:18:50;18.70;90.60
21950;DHT22;11139;51.284;7.226;2022-07-29T06:21:16;18.70;90.60
21950;DHT22;11139;51.284;7.226;2022-07-29T06:23:42;18.70;90.60
21950;DHT22;11139;51.284;7.226;2022-07-29T06:26:07;18.70;90.60
21950;DHT22;11139;51.284;7.226;2022-07-29T06:28:33;18.70;90.60
21950;DHT22;11139;51.284;7.226;2022-07-29T06:30:59;18.70;90.60
21950;DHT22;11139;51.284;7.226;2022-07-29T06:33:25;18.70;90.70
21950;DHT22;11139;51.284;7.226;2022-07-29T06:35:50;18.70;90.70
21950;DHT22;11139;51.284;7.226;2022-07-29T06:38:16;18.70;90.70
21950;DHT22;11139;51.284;7.226;2022-07-29T06:40:42;18.70;90.70
21950;DHT22;11139;51.284;7.226;2022-07-29T06:43:27;18.70;90.70
21950;DHT22;11139;51.284;7.226;2022-07-29T06:45:52;18.70;90.80
21950;DHT22;11139;51.284;7.226;2022-07-29T06:48:18;18.70;90.80
21950;DHT22;11139;51.284;7.226;2022-07-29T06:50:43;18.70;90.80
21950;DHT22;11139;51.284;7.226;2022-07-29T06:53:09;18.70;90.80
21950;DHT22;11139;51.284;7.226;2022-07-29T06:55:34;18.70;90.90
21950;DHT22;11139;51.284;7.226;2022-07-29T06:58:02;18.70;90.90
21950;DHT22;11139;51.284;7.226;2022-07-29T07:00:27;18.70;90.90
21950;DHT22;11139;51.284;7.226;2022-07-29T07:02:53;18.70;90.90
21950;DHT22;11139;51.284;7.226;2022-07-29T07:05:18;18.70;90.90
21950;DHT22;11139;51.284;7.226;2022-07-29T07:07:44;18.70;91.00
21950;DHT22;11139;51.284;7.226;2022-07-29T07:10:09;18.70;91.00
21950;DHT22;11139;51.284;7.226;2022-07-29T07:12:34;18.70;91.00
21950;DHT22;11139;51.284;7.226;2022-07-29T07:15:00;18.70;91.00
21950;DHT22;11139;51.284;7.226;2022-07-29T07:17:25;18.70;91.00
21950;DHT22;11139;51.284;7.226;2022-07-29T07:19:51;18.70;91.00
21950;DHT22;11139;51.284;7.226;2022-07-29T07:22:16;18.70;91.10
21950;DHT22;11139;51.284;7.226;2022-07-29T07:24:42;18.70;91.10
21950;DHT22;11139;51.284;7.226;2022-07-29T07:27:07;18.70;91.10
21950;DHT22;11139;51.284;7.226;2022-07-29T07:29:33;18.70;91.10
21950;DHT22;11139;51.284;7.226;2022-07-29T07:31:58;18.70;91.20
21950;DHT22;11139;51.284;7.226;2022-07-29T07:34:24;18.70;91.20
21950;DHT22;11139;51.284;7.226;2022-07-29T07:36:49;18.70;91.20
21950;DHT22;11139;51.284;7.226;2022-07-29T07:39:15;18.70;91.20
21950;DHT22;11139;51.284;7.226;2022-07-29T07:41:40;18.70;91.20
21950;DHT22;11139;51.284;7.226;2022-07-29T07:44:06;18.70;91.20
21950;DHT22;11139;51.284;7.226;2022-07-29T07:46:31;18.70;91.20
21950;DHT22;11139;51.284;7.226;2022-07-29T07:48:57;18.70;91.30
21950;DHT22;11139;51.284;7.226;2022-07-29T07:51:22;18.70;91.30
21950;DHT22;11139;51.284;7.226;2022-07-29T07:53:48;18.70;91.30
21950;DHT22;11139;51.284;7.226;2022-07-29T07:56:15;18.70;91.30
21950;DHT22;11139;51.284;7.226;2022-07-29T07:58:41;18.70;91.30
21950;DHT22;11139;51.284;7.226;2022-07-29T08:01:07;18.70;91.30
21950;DHT22;11139;51.284;7.226;2022-07-29T08:03:32;18.70;91.30
21950;DHT22;11139;51.284;7.226;2022-07-29T08:05:58;18.70;91.30
21950;DHT22;11139;51.284;7.226;2022-07-29T08:08:23;18.70;91.30
21950;DHT22;11139;51.284;7.226;2022-07-29T08:10:49;18.70;91.30
21950;DHT22;11139;51.284;7.226;2022-07-29T08:13:17;18.70;91.30
21950;DHT22;11139;51.284;7.226;2022-07-29T08:15:43;18.70;91.40
21950;DHT22;11139;51.284;7.226;2022-07-29T08:18:10;18.70;91.30
21950;DHT22;11139;51.284;7.226;2022-07-29T08:20:36;18.70;91.40
21950;DHT22;11139;51.284;7.226;2022-07-29T08:23:03;18.70;91.40
21950;DHT22;11139;51.284;7.226;2022-07-29T08:25:29;18.70;91.40
21950;DHT22;11139;51.284;7.226;2022-07-29T08:27:55;18.70;91.40
21950;DHT22;11139;51.284;7.226;2022-07-29T08:30:20;18.70;91.40
21950;DHT22;11139;51.284;7.226;2022-07-29T08:32:47;18.70;91.50
21950;DHT22;11139;51.284;7.226;2022-07-29T08:35:13;18.70;91.50
21950;DHT22;11139;51.284;7.226;2022-07-29T08:37:38;18.70;91.40
21950;DHT22;11139;51.284;7.226;2022-07-29T08:40:04;18.70;91.50
21950;DHT22;11139;51.284;7.226;2022-07-29T08:42:31;18.70;91.90
21950;DHT22;11139;51.284;7.226;2022-07-29T08:44:56;18.70;91.50
21950;DHT22;11139;51.284;7.226;2022-07-29T08:47:23;18.70;91.50
21950;DHT22;11139;51.284;7.226;2022-07-29T08:49:51;18.70;91.50
21950;DHT22;11139;51.284;7.226;2022-07-29T08:52:17;18.70;91.50
21950;DHT22;11139;51.284;7.226;2022-07-29T08:54:43;18.70;91.50
21950;DHT22;11139;51.284;7.226;2022-07-29T08:57:09;18.70;91.50
21950;DHT22;11139;51.284;7.226;2022-07-29T08:59:35;18.70;91.60
21950;DHT22;11139;51.284;7.226;2022-07-29T09:02:02;18.70;91.60
21950;DHT22;11139;51.284;7.226;2022-07-29T09:04:32;18.70;91.60
21950;DHT22;11139;51.284;7.226;2022-07-29T09:07:00;18.70;91.60
21950;DHT22;11139;51.284;7.226;2022-07-29T09:09:27;18.70;91.60
21950;DHT22;11139;51.284;7.226;2022-07-29T09:11:52;18.70;91.90
21950;DHT22;11139;51.284;7.226;2022-07-29T09:14:18;18.70;91.60
21950;DHT22;11139;51.284;7.226;2022-07-29T09:17:02;18.70;91.70
21950;DHT22;11139;51.284;7.226;2022-07-29T09:21:53;18.70;91.70
21950;DHT22;11139;51.284;7.226;2022-07-29T09:24:25;18.70;91.60
21950;DHT22;11139;51.284;7.226;2022-07-29T09:26:51;18.70;91.70
21950;DHT22;11139;51.284;7.226;2022-07-29T09:29:17;18.70;91.80
21950;DHT22;11139;51.284;7.226;2022-07-29T09:31:47;18.70;92.60
21950;DHT22;11139;51.284;7.226;2022-07-29T09:34:14;18.80;92.90
21950;DHT22;11139;51.284;7.226;2022-07-29T09:39:06;18.70;93.00
21950;DHT22;11139;51.284;7.226;2022-07-29T09:44:46;18.70;93.20
21950;DHT22;11139;51.284;7.226;2022-07-29T09:47:13;18.70;93.30
21950;DHT22;11139;51.284;7.226;2022-07-29T09:49:57;18.70;93.40
21950;DHT22;11139;51.284;7.226;2022-07-29T09:52:26;18.70;93.40
21950;DHT22;11139;51.284;7.226;2022-07-29T09:54:52;18.70;93.20
21950;DHT22;11139;51.284;7.226;2022-07-29T09:57:26;18.70;93.40
21950;DHT22;11139;51.284;7.226;2022-07-29T10:00:25;18.70;93.30
21950;DHT22;11139;51.284;7.226;2022-07-29T10:02:44;18.70;93.20
21950;DHT22;11139;51.284;7.226;2022-07-29T10:10:17;18.80;93.10
21950;DHT22;11139;51.284;7.226;2022-07-29T10:12:48;18.70;93.10
21950;DHT22;11139;51.284;7.226;2022-07-29T10:15:14;18.70;93.10
21950;DHT22;11139;51.284;7.226;2022-07-29T10:17:41;18.70;93.00
21950;DHT22;11139;51.284;7.226;2022-07-29T10:20:07;18.70;93.00
21950;DHT22;11139;51.284;7.226;2022-07-29T10:22:32;18.70;93.10
21950;DHT22;11139;51.284;7.226;2022-07-29T10:24:58;18.70;93.10
21950;DHT22;11139;51.284;7.226;2022-07-29T10:27:24;18.70;93.00
21950;DHT22;11139;51.284;7.226;2022-07-29T10:29:50;18.70;93.10
21950;DHT22;11139;51.284;7.226;2022-07-29T10:37:41;18.70;93.10
21950;DHT22;11139;51.284;7.226;2022-07-29T10:40:36;18.70;93.00
21950;DHT22;11139;51.284;7.226;2022-07-29T10:43:23;18.70;93.00
21950;DHT22;11139;51.284;7.226;2022-07-29T10:45:54;18.70;93.00
21950;DHT22;11139;51.284;7.226;2022-07-29T10:48:20;18.70;93.00
21950;DHT22;11139;51.284;7.226;2022-07-29T10:50:59;18.70;93.00
21950;DHT22;11139;51.284;7.226;2022-07-29T10:56:43;18.70;93.00
21950;DHT22;11139;51.284;7.226;2022-07-29T11:01:48;18.70;92.90
21950;DHT22;11139;51.284;7.226;2022-07-29T11:09:30;18.70;92.90
21950;DHT22;11139;51.284;7.226;2022-07-29T11:11:56;18.70;92.90
21950;DHT22;11139;51.284;7.226;2022-07-29T11:17:06;18.70;93.00
21950;DHT22;11139;51.284;7.226;2022-07-29T11:19:32;18.70;93.00
21950;DHT22;11139;51.284;7.226;2022-07-29T11:21:58;18.70;93.10
21950;DHT22;11139;51.284;7.226;2022-07-29T11:24:30;18.70;93.00
21950;DHT22;11139;51.284;7.226;2022-07-29T11:27:10;18.70;93.00
21950;DHT22;11139;51.284;7.226;2022-07-29T11:29:57;18.70;93.00
21950;DHT22;11139;51.284;7.226;2022-07-29T11:32:24;18.80;93.00
21950;DHT22;11139;51.284;7.226;2022-07-29T11:35:10;18.70;93.00
21950;DHT22;11139;51.284;7.226;2022-07-29T11:37:35;18.80;93.00
21950;DHT22;11139;51.284;7.226;2022-07-29T11:50:14;18.80;92.90
21950;DHT22;11139;51.284;7.226;2022-07-29T11:52:41;18.80;93.30
21950;DHT22;11139;51.284;7.226;2022-07-29T11:57:45;18.80;92.90
21950;DHT22;11139;51.284;7.226;2022-07-29T12:00:11;18.80;92.90
21950;DHT22;11139;51.284;7.226;2022-07-29T12:02:43;18.80;93.00
21950;DHT22;11139;51.284;7.226;2022-07-29T12:05:09;18.80;92.90
21950;DHT22;11139;51.284;7.226;2022-07-29T12:07:36;18.80;93.00
21950;DHT22;11139;51.284;7.226;2022-07-29T12:10:04;19.20;94.20
21950;DHT22;11139;51.284;7.226;2022-07-29T12:12:30;19.60;95.00
21950;DHT22;11139;51.284;7.226;2022-07-29T12:14:55;19.80;97.60
21950;DHT22;11139;51.284;7.226;2022-07-29T12:17:28;20.00;98.90
21950;DHT22;11139;51.284;7.226;2022-07-29T12:19:54;20.00;99.30
21950;DHT22;11139;51.284;7.226;2022-07-29T12:24:51;19.80;99.20
21950;DHT22;11139;51.284;7.226;2022-07-29T12:27:17;19.80;99.90
21950;DHT22;11139;51.284;7.226;2022-07-29T12:29:43;19.80;99.90
21950;DHT22;11139;51.284;7.226;2022-07-29T12:32:08;19.80;99.90
21950;DHT22;11139;51.284;7.226;2022-07-29T12:34:34;19.80;99.90
21950;DHT22;11139;51.284;7.226;2022-07-29T12:37:00;19.80;99.90
21950;DHT22;11139;51.284;7.226;2022-07-29T12:39:26;19.80;99.90
21950;DHT22;11139;51.284;7.226;2022-07-29T12:41:53;19.80;99.90
21950;DHT22;11139;51.284;7.226;2022-07-29T12:44:18;19.80;99.90
21950;DHT22;11139;51.284;7.226;2022-07-29T12:46:44;19.80;99.90
21950;DHT22;11139;51.284;7.226;2022-07-29T12:49:20;19.80;99.90
21950;DHT22;11139;51.284;7.226;2022-07-29T12:51:46;19.80;99.90
21950;DHT22;11139;51.284;7.226;2022-07-29T12:54:13;19.80;99.90
21950;DHT22;11139;51.284;7.226;2022-07-29T12:56:42;19.80;99.90
21950;DHT22;11139;51.284;7.226;2022-07-29T12:59:14;19.80;99.90
21950;DHT22;11139;51.284;7.226;2022-07-29T13:01:40;19.80;99.90
21950;DHT22;11139;51.284;7.226;2022-07-29T13:04:06;19.80;99.90
21950;DHT22;11139;51.284;7.226;2022-07-29T13:09:00;19.80;99.90
21950;DHT22;11139;51.284;7.226;2022-07-29T13:11:33;19.80;99.90
21950;DHT22;11139;51.284;7.226;2022-07-29T13:13:58;19.80;99.90
21950;DHT22;11139;51.284;7.226;2022-07-29T13:16:24;19.80;99.90
21950;DHT22;11139;51.284;7.226;2022-07-29T13:18:54;19.80;99.90
21950;DHT22;11139;51.284;7.226;2022-07-29T13:21:27;19.80;99.90
21950;DHT22;11139;51.284;7.226;2022-07-29T13:23:53;19.80;99.90
21950;DHT22;11139;51.284;7.226;2022-07-29T13:26:19;19.80;99.90
21950;DHT22;11139;51.284;7.226;2022-07-29T13:28:44;19.80;99.90
21950;DHT22;11139;51.284;7.226;2022-07-29T13:31:10;19.80;99.90
21950;DHT22;11139;51.284;7.226;2022-07-29T13:33:36;19.80;99.90
21950;DHT22;11139;51.284;7.226;2022-07-29T13:36:01;19.80;99.90
21950;DHT22;11139;51.284;7.226;2022-07-29T13:38:27;19.80;99.90
21950;DHT22;11139;51.284;7.226;2022-07-29T13:40:52;19.80;99.90
21950;DHT22;11139;51.284;7.226;2022-07-29T13:43:18;19.80;99.90
21950;DHT22;11139;51.284;7.226;2022-07-29T13:45:43;19.80;99.90
21950;DHT22;11139;51.284;7.226;2022-07-29T13:48:09;19.80;99.90
21950;DHT22;11139;51.284;7.226;2022-07-29T13:50:34;19.80;99.90
21950;DHT22;11139;51.284;7.226;2022-07-29T13:53:00;19.80;99.90
21950;DHT22;11139;51.284;7.226;2022-07-29T13:55:25;19.80;99.90
21950;DHT22;11139;51.284;7.226;2022-07-29T13:57:51;19.80;99.90
21950;DHT22;11139;51.284;7.226;2022-07-29T14:00:16;19.80;99.90
21950;DHT22;11139;51.284;7.226;2022-07-29T14:02:43;19.80;99.90
21950;DHT22;11139;51.284;7.226;2022-07-29T14:05:09;19.80;99.90
21950;DHT22;11139;51.284;7.226;2022-07-29T14:07:36;19.80;99.90
21950;DHT22;11139;51.284;7.226;2022-07-29T14:10:02;19.80;99.90
21950;DHT22;11139;51.284;7.226;2022-07-29T14:12:27;19.80;99.90
21950;DHT22;11139;51.284;7.226;2022-07-29T14:14:53;19.80;99.90
21950;DHT22;11139;51.284;7.226;2022-07-29T14:17:18;19.90;99.90
21950;DHT22;11139;51.284;7.226;2022-07-29T14:19:44;19.80;99.90
21950;DHT22;11139;51.284;7.226;2022-07-29T14:22:09;19.80;99.90
21950;DHT22;11139;51.284;7.226;2022-07-29T14:24:35;19.90;99.90
21950;DHT22;11139;51.284;7.226;2022-07-29T14:27:01;19.90;99.90
21950;DHT22;11139;51.284;7.226;2022-07-29T14:29:26;19.90;99.90
21950;DHT22;11139;51.284;7.226;2022-07-29T14:31:52;19.90;99.90
21950;DHT22;11139;51.284;7.226;2022-07-29T14:34:18;19.90;99.90
21950;DHT22;11139;51.284;7.226;2022-07-29T14:36:43;19.90;99.90
21950;DHT22;11139;51.284;7.226;2022-07-29T14:39:09;19.90;99.90
21950;DHT22;11139;51.284;7.226;2022-07-29T14:41:34;19.90;99.90
21950;DHT22;11139;51.284;7.226;2022-07-29T14:44:00;19.90;99.90
21950;DHT22;11139;51.284;7.226;2022-07-29T14:46:26;19.90;99.90
21950;DHT22;11139;51.284;7.226;2022-07-29T14:48:52;19.90;99.90
21950;DHT22;11139;51.284;7.226;2022-07-29T14:51:17;20.00;99.90
21950;DHT22;11139;51.284;7.226;2022-07-29T14:53:43;20.00;99.90
21950;DHT22;11139;51.284;7.226;2022-07-29T14:56:08;20.00;99.90
21950;DHT22;11139;51.284;7.226;2022-07-29T14:58:34;20.00;99.90
21950;DHT22;11139;51.284;7.226;2022-07-29T15:00:59;20.00;99.90
21950;DHT22;11139;51.284;7.226;2022-07-29T15:03:26;20.00;99.90
21950;DHT22;11139;51.284;7.226;2022-07-29T15:05:53;20.00;99.90
21950;DHT22;11139;51.284;7.226;2022-07-29T15:08:18;20.00;99.90
21950;DHT22;11139;51.284;7.226;2022-07-29T15:10:44;20.00;99.90
21950;DHT22;11139;51.284;7.226;2022-07-29T15:13:09;20.00;99.90
21950;DHT22;11139;51.284;7.226;2022-07-29T15:15:35;20.00;99.90
21950;DHT22;11139;51.284;7.226;2022-07-29T15:18:00;20.00;99.90
21950;DHT22;11139;51.284;7.226;2022-07-29T15:20:26;20.00;99.90
21950;DHT22;11139;51.284;7.226;2022-07-29T15:22:52;20.10;99.90
21950;DHT22;11139;51.284;7.226;2022-07-29T15:25:18;20.10;99.90
21950;DHT22;11139;51.284;7.226;2022-07-29T15:27:43;20.10;99.90
21950;DHT22;11139;51.284;7.226;2022-07-29T15:30:09;20.10;99.90
21950;DHT22;11139;51.284;7.226;2022-07-29T15:32:35;20.10;99.90
21950;DHT22;11139;51.284;7.226;2022-07-29T15:35:00;20.10;99.90
21950;DHT22;11139;51.284;7.226;2022-07-29T15:37:26;20.10;99.90
21950;DHT22;11139;51.284;7.226;2022-07-29T15:39:53;20.10;99.90
21950;DHT22;11139;51.284;7.226;2022-07-29T15:42:19;20.10;99.90
21950;DHT22;11139;51.284;7.226;2022-07-29T15:44:44;20.10;99.90
21950;DHT22;11139;51.284;7.226;2022-07-29T15:47:10;20.10;99.90
21950;DHT22;11139;51.284;7.226;2022-07-29T15:49:39;20.10;99.90
21950;DHT22;11139;51.284;7.226;2022-07-29T15:52:06;20.10;99.90
21950;DHT22;11139;51.284;7.226;2022-07-29T15:54:32;20.10;99.90
21950;DHT22;11139;51.284;7.226;2022-07-29T15:56:57;20.20;99.90
21950;DHT22;11139;51.284;7.226;2022-07-29T15:59:23;20.20;99.90
21950;DHT22;11139;51.284;7.226;2022-07-29T16:01:48;20.20;99.90
21950;DHT22;11139;51.284;7.226;2022-07-29T16:04:14;20.20;99.90
21950;DHT22;11139;51.284;7.226;2022-07-29T16:06:40;20.20;99.90
21950;DHT22;11139;51.284;7.226;2022-07-29T16:09:06;20.20;99.90
21950;DHT22;11139;51.284;7.226;2022-07-29T16:11:31;20.20;99.90
21950;DHT22;11139;51.284;7.226;2022-07-29T16:13:57;20.20;99.90
21950;DHT22;11139;51.284;7.226;2022-07-29T16:16:22;20.20;99.90
21950;DHT22;11139;51.284;7.226;2022-07-29T16:18:48;20.20;99.90
21950;DHT22;11139;51.284;7.226;2022-07-29T16:21:13;20.20;99.90
21950;DHT22;11139;51.284;7.226;2022-07-29T16:23:39;20.20;99.90
21950;DHT22;11139;51.284;7.226;2022-07-29T16:26:05;20.20;99.90
21950;DHT22;11139;51.284;7.226;2022-07-29T16:28:30;20.20;99.90
21950;DHT22;11139;51.284;7.226;2022-07-29T16:30:56;20.20;99.90
21950;DHT22;11139;51.284;7.226;2022-07-29T16:33:22;20.20;99.90
21950;DHT22;11139;51.284;7.226;2022-07-29T16:35:48;20.20;99.90
21950;DHT22;11139;51.284;7.226;2022-07-29T16:38:13;20.20;99.90